Time;durP1;ratioP1;P1;durP2;ratioP2;P2;SDS_P1;SDS_P2;PMS_P1;PMS_P2;Temp;Humidity;BMP_temperature;BMP_pressure;BME280_temperature;BME280_humidity;BME280_pressure;Samples;Min_cycle;Max_cycle;Signal;HPM_P1;HPM_P2
2023/08/15 00:00:32;;;;;;;8.67;7.10;;;23.50;90.50;;;;;;10356048;28;20407;-66
2023/08/15 00:05:32;;;;;;;8.07;6.70;;;23.40;90.50;;;;;;10352950;28;20785;-67
2023/08/15 00:10:33;;;;;;;9.03;6.70;;;23.40;90.50;;;;;;10342356;28;20455;-67
2023/08/15 00:15:35;;;;;;;7.65;6.78;;;23.40;90.60;;;;;;10356588;28;20634;-64
2023/08/15 00:20:35;;;;;;;8.05;6.82;;;23.40;90.60;;;;;;10357607;28;20474;-67
2023/08/15 00:25:36;;;;;;;8.45;6.43;;;23.40;90.60;;;;;;10358375;28;20913;-64
2023/08/15 00:30:36;;;;;;;9.17;6.67;;;23.30;90.60;;;;;;10355790;28;20415;-67
2023/08/15 00:35:37;;;;;;;8.47;6.90;;;23.30;90.60;;;;;;10345093;28;20820;-66
2023/08/15 00:40:39;;;;;;;8.30;7.40;;;23.30;90.70;;;;;;10357689;28;20393;-65
2023/08/15 00:45:41;;;;;;;8.48;7.57;;;23.30;90.70;;;;;;10366145;28;20397;-65
2023/08/15 00:50:45;;;;;;;6.90;6.20;;;23.20;90.70;;;;;;10363097;28;20416;-67
2023/08/15 00:55:46;;;;;;;9.43;7.70;;;23.20;90.70;;;;;;10362129;28;20397;-66
2023/08/15 01:00:47;;;;;;;7.67;6.80;;;23.20;90.70;;;;;;10359897;28;20416;-67
2023/08/15 01:05:49;;;;;;;8.63;7.22;;;23.20;90.80;;;;;;10363135;28;20437;-66
2023/08/15 01:10:49;;;;;;;10.10;7.90;;;23.20;90.80;;;;;;10351767;28;20415;-66
2023/08/15 01:15:52;;;;;;;8.93;7.88;;;23.10;90.80;;;;;;10362848;28;20412;-66
2023/08/15 01:20:54;;;;;;;9.13;7.73;;;23.10;90.80;;;;;;10360383;28;20409;-66
2023/08/15 01:25:55;;;;;;;8.43;7.53;;;23.10;90.80;;;;;;10362474;28;20392;-67
2023/08/15 01:31:14;;;;;;;8.37;7.03;;;23.10;90.80;;;;;;10359570;28;20408;-66
2023/08/15 01:36:23;;;;;;;8.10;7.22;;;23.00;90.70;;;;;;10356532;28;20426;-66
2023/08/15 01:41:25;;;;;;;7.55;6.75;;;23.00;90.80;;;;;;10357834;28;20424;-66
2023/08/15 01:46:25;;;;;;;9.37;8.17;;;23.80;91.00;;;;;;10339601;28;20906;-67
2023/08/15 01:51:26;;;;;;;8.63;7.78;;;23.00;90.90;;;;;;10358035;28;20413;-66
2023/08/15 01:56:27;;;;;;;9.43;8.00;;;23.00;90.90;;;;;;10360531;28;20404;-67
2023/08/15 02:01:27;;;;;;;8.87;7.97;;;23.00;91.00;;;;;;10358926;28;20421;-65
2023/08/15 02:06:28;;;;;;;8.97;7.50;;;22.90;91.00;;;;;;10347308;28;20416;-67
2023/08/15 02:11:29;;;;;;;8.30;7.30;;;22.90;91.00;;;;;;10358426;28;20893;-66
2023/08/15 02:16:29;;;;;;;9.60;8.40;;;22.90;91.00;;;;;;10359311;28;20447;-66
2023/08/15 02:21:30;;;;;;;9.23;7.45;;;22.90;91.10;;;;;;10359834;28;20407;-64
2023/08/15 02:26:31;;;;;;;10.23;9.13;;;22.90;91.10;;;;;;10359629;28;20407;-65
2023/08/15 02:31:32;;;;;;;10.50;8.82;;;22.90;91.20;;;;;;10359267;28;20818;-66
2023/08/15 02:36:33;;;;;;;10.63;8.38;;;22.90;91.20;;;;;;10358350;28;20474;-66
2023/08/15 02:41:33;;;;;;;10.17;8.93;;;22.80;91.20;;;;;;10358675;28;20780;-65
2023/08/15 02:46:34;;;;;;;9.50;8.33;;;22.80;91.30;;;;;;10357609;28;21129;-66
2023/08/15 02:51:34;;;;;;;9.50;8.50;;;22.80;91.30;;;;;;10357268;28;20431;-66
2023/08/15 02:56:35;;;;;;;9.43;8.52;;;22.80;91.30;;;;;;10340244;28;20911;-65
2023/08/15 03:01:36;;;;;;;10.48;8.68;;;22.80;91.30;;;;;;10354388;28;20416;-67
2023/08/15 03:06:37;;;;;;;10.50;8.50;;;22.70;91.40;;;;;;10353736;28;21078;-66
2023/08/15 03:11:38;;;;;;;10.07;8.90;;;22.80;91.40;;;;;;10355091;28;20409;-66
2023/08/15 03:16:38;;;;;;;10.30;9.10;;;22.70;91.50;;;;;;10355178;28;20403;-67
2023/08/15 03:21:39;;;;;;;9.80;8.80;;;22.70;91.60;;;;;;10356286;28;20408;-65
2023/08/15 03:26:40;;;;;;;10.30;9.20;;;22.70;91.60;;;;;;10356146;28;20397;-66
2023/08/15 03:31:40;;;;;;;10.10;9.10;;;22.70;91.60;;;;;;10358125;28;20444;-66
2023/08/15 03:36:42;;;;;;;9.90;8.80;;;22.70;91.70;;;;;;10355933;28;20569;-66
2023/08/15 03:41:42;;;;;;;10.70;9.33;;;22.70;91.60;;;;;;10358663;28;20408;-66
2023/08/15 03:46:44;;;;;;;11.27;9.17;;;22.70;91.70;;;;;;10356645;28;20404;-66
2023/08/15 03:51:45;;;;;;;9.93;8.87;;;22.70;91.70;;;;;;10356804;28;20420;-66
2023/08/15 03:56:45;;;;;;;9.73;8.70;;;22.60;91.70;;;;;;10358752;28;20424;-66
2023/08/15 04:01:46;;;;;;;9.90;8.70;;;22.60;91.80;;;;;;10356163;28;20401;-66
2023/08/15 04:06:46;;;;;;;9.77;8.77;;;22.60;91.80;;;;;;10358743;28;20408;-66
2023/08/15 04:11:47;;;;;;;9.77;8.55;;;22.60;91.90;;;;;;10355224;28;20918;-66
2023/08/15 04:16:48;;;;;;;9.53;8.63;;;22.60;91.90;;;;;;10357672;28;20415;-65
2023/08/15 04:21:48;;;;;;;9.70;8.70;;;22.60;91.90;;;;;;10360431;28;20412;-66
2023/08/15 04:26:49;;;;;;;10.63;8.50;;;22.60;91.90;;;;;;10349085;28;20396;-67
2023/08/15 04:31:49;;;;;;;9.23;8.33;;;22.50;91.90;;;;;;10348089;28;20420;-65
2023/08/15 04:36:50;;;;;;;9.27;8.33;;;22.50;91.90;;;;;;10362007;28;20408;-66
2023/08/15 04:41:51;;;;;;;9.50;8.30;;;22.50;91.90;;;;;;10359113;28;20412;-66
2023/08/15 04:46:52;;;;;;;9.80;8.00;;;22.50;92.00;;;;;;10364729;28;20404;-66
2023/08/15 04:51:52;;;;;;;9.87;8.47;;;22.50;92.00;;;;;;10359707;28;20784;-63
2023/08/15 04:56:53;;;;;;;9.10;8.20;;;22.40;92.00;;;;;;10364298;28;20420;-66
2023/08/15 05:01:54;;;;;;;9.65;8.65;;;22.40;92.00;;;;;;10361446;28;20408;-66
2023/08/15 05:06:54;;;;;;;10.57;8.57;;;22.40;92.00;;;;;;10347084;28;20404;-67
2023/08/15 05:11:55;;;;;;;8.73;7.80;;;22.40;92.00;;;;;;10359085;28;20401;-65
2023/08/15 05:16:56;;;;;;;8.63;7.65;;;22.40;92.10;;;;;;10360429;28;20401;-67
2023/08/15 05:21:57;;;;;;;8.70;7.70;;;22.40;92.10;;;;;;10357373;28;20426;-65
2023/08/15 05:26:57;;;;;;;9.13;7.40;;;22.40;92.10;;;;;;10358866;28;20475;-68
2023/08/15 05:31:58;;;;;;;8.70;7.85;;;22.40;92.30;;;;;;10358671;28;20831;-67
2023/08/15 05:36:58;;;;;;;7.93;7.13;;;22.30;92.10;;;;;;10358976;28;20397;-67
2023/08/15 05:41:59;;;;;;;9.52;8.02;;;22.30;92.20;;;;;;10359329;28;20976;-67
2023/08/15 05:47:00;;;;;;;9.33;8.33;;;22.30;92.20;;;;;;10361792;28;20393;-66
2023/08/15 05:52:01;;;;;;;9.57;8.07;;;22.30;92.20;;;;;;10364011;28;20506;-67
2023/08/15 05:57:01;;;;;;;8.23;7.43;;;22.30;92.20;;;;;;10364058;28;20540;-67
2023/08/15 06:02:02;;;;;;;10.23;7.73;;;22.30;92.20;;;;;;10348410;28;20937;-66
2023/08/15 06:07:03;;;;;;;10.13;7.40;;;22.30;92.20;;;;;;10358064;28;20416;-66
2023/08/15 06:12:04;;;;;;;9.27;7.65;;;22.20;92.20;;;;;;10360437;28;20416;-67
2023/08/15 06:17:05;;;;;;;8.80;7.90;;;22.30;92.20;;;;;;10342163;28;20417;-65
2023/08/15 06:22:06;;;;;;;9.30;7.00;;;22.30;92.20;;;;;;10360503;28;20732;-66
2023/08/15 06:27:06;;;;;;;13.67;9.37;;;22.20;92.50;;;;;;10350198;28;21010;-66
2023/08/15 06:32:08;;;;;;;8.37;6.50;;;22.20;92.30;;;;;;10359009;28;20801;-65
2023/08/15 06:37:09;;;;;;;8.38;7.32;;;22.20;92.30;;;;;;10352473;28;20408;-65
2023/08/15 06:42:10;;;;;;;11.10;7.13;;;22.20;92.30;;;;;;10358765;28;20416;-66
2023/08/15 06:47:11;;;;;;;8.07;6.30;;;22.30;92.30;;;;;;10343116;28;20400;-65
2023/08/15 06:52:12;;;;;;;8.70;6.47;;;22.20;92.50;;;;;;10358705;28;20420;-65
2023/08/15 06:57:13;;;;;;;7.93;6.70;;;22.30;92.20;;;;;;10360931;28;20435;-66
2023/08/15 07:02:13;;;;;;;8.13;6.30;;;22.30;92.20;;;;;;10341106;28;20408;-64
2023/08/15 07:07:14;;;;;;;9.40;7.53;;;22.30;92.20;;;;;;10358941;28;20463;-65
2023/08/15 07:12:18;;;;;;;13.88;12.00;;;22.30;92.10;;;;;;10361542;28;20419;-65
2023/08/15 07:17:18;;;;;;;9.52;7.50;;;22.30;92.10;;;;;;10357618;28;20901;-65
2023/08/15 07:22:19;;;;;;;9.73;7.70;;;22.30;92.10;;;;;;10353442;28;20523;-66
2023/08/15 07:27:20;;;;;;;9.02;7.38;;;22.30;92.00;;;;;;10365189;28;20483;-64
2023/08/15 07:32:21;;;;;;;7.97;6.80;;;22.30;92.10;;;;;;10347821;28;20428;-64
2023/08/15 07:37:21;;;;;;;9.97;6.80;;;22.40;92.10;;;;;;10361206;28;21004;-66
2023/08/15 07:42:22;;;;;;;8.60;6.97;;;22.40;92.20;;;;;;10360367;28;20905;-65
2023/08/15 07:47:23;;;;;;;8.90;7.50;;;22.40;92.20;;;;;;10366056;28;20463;-66
2023/08/15 07:52:23;;;;;;;8.97;7.20;;;22.40;92.20;;;;;;10354255;28;20420;-65
2023/08/15 07:57:24;;;;;;;9.70;7.43;;;22.40;92.10;;;;;;10373500;28;20496;-64
2023/08/15 08:02:25;;;;;;;8.75;7.13;;;22.40;92.10;;;;;;10371830;28;20408;-65
2023/08/15 08:07:26;;;;;;;8.30;6.80;;;22.50;92.10;;;;;;10374747;28;20409;-65
2023/08/15 08:12:28;;;;;;;8.15;6.97;;;22.50;92.10;;;;;;10371419;28;20408;-66
2023/08/15 08:17:29;;;;;;;9.20;7.30;;;22.50;92.10;;;;;;10374274;28;20408;-66
2023/08/15 08:22:29;;;;;;;8.70;6.73;;;22.50;92.10;;;;;;10376332;28;20915;-66
2023/08/15 08:27:30;;;;;;;8.67;6.70;;;22.60;92.10;;;;;;10368498;28;21965;-66
2023/08/15 08:32:30;;;;;;;7.83;7.03;;;22.60;92.10;;;;;;10352749;28;20494;-65
2023/08/15 08:37:32;;;;;;;7.57;6.60;;;22.60;92.10;;;;;;10372567;28;20925;-66
2023/08/15 08:42:34;;;;;;;8.98;6.85;;;22.70;92.10;;;;;;10355930;28;20446;-65
2023/08/15 08:47:38;;;;;;;8.95;6.95;;;22.70;92.10;;;;;;10363783;28;20411;-64
2023/08/15 08:52:48;;;;;;;10.30;7.40;;;22.70;92.10;;;;;;10368448;28;20427;-65
2023/08/15 08:57:51;;;;;;;8.57;7.00;;;22.80;92.00;;;;;;10367117;28;20963;-66
2023/08/15 09:02:52;;;;;;;9.13;7.07;;;22.80;92.00;;;;;;10369782;28;20412;-65
2023/08/15 09:07:53;;;;;;;8.80;6.70;;;22.90;91.90;;;;;;10366533;28;20397;-66
2023/08/15 09:12:59;;;;;;;9.43;7.10;;;22.90;91.90;;;;;;10372260;28;20413;-65
2023/08/15 09:18:01;;;;;;;8.73;6.90;;;23.00;91.90;;;;;;10367203;28;20416;-65
2023/08/15 09:23:02;;;;;;;8.57;6.90;;;23.00;91.80;;;;;;10369037;28;20504;-66
2023/08/15 09:28:05;;;;;;;8.13;7.33;;;23.00;91.70;;;;;;10368206;28;20482;-65
2023/08/15 09:33:06;;;;;;;7.93;6.80;;;23.00;91.80;;;;;;10367678;28;20455;-66
2023/08/15 09:38:07;;;;;;;8.13;7.10;;;23.10;91.80;;;;;;10369731;28;20447;-65
2023/08/15 09:43:14;;;;;;;8.53;6.73;;;23.10;92.00;;;;;;10368959;28;20480;-64
2023/08/15 09:48:16;;;;;;;7.80;6.63;;;23.10;91.70;;;;;;10371090;28;20466;-65
2023/08/15 09:53:22;;;;;;;7.28;6.28;;;23.20;91.70;;;;;;10365762;28;20466;-65
2023/08/15 09:58:22;;;;;;;8.07;6.33;;;23.30;91.70;;;;;;10368112;28;20470;-66
2023/08/15 10:03:35;;;;;;;7.83;6.50;;;23.20;91.60;;;;;;10364069;28;20421;-65
2023/08/15 10:08:41;;;;;;;9.35;7.10;;;23.30;91.60;;;;;;10366716;28;20444;-65
2023/08/15 10:13:44;;;;;;;8.48;6.35;;;23.30;91.60;;;;;;10370096;28;20411;-66
2023/08/15 10:18:56;;;;;;;7.93;6.05;;;23.30;91.60;;;;;;10365853;28;20685;-66
2023/08/15 10:24:02;;;;;;;7.30;6.13;;;23.30;91.50;;;;;;10365777;28;21087;-65
2023/08/15 10:29:03;;;;;;;8.23;6.23;;;23.40;91.60;;;;;;10363419;28;20401;-65
2023/08/15 10:34:07;;;;;;;7.87;6.37;;;23.30;91.60;;;;;;10366796;28;20487;-66
2023/08/15 10:39:08;;;;;;;8.57;6.20;;;23.30;91.60;;;;;;10348344;28;20409;-65
2023/08/15 10:44:10;;;;;;;7.47;6.27;;;23.30;91.50;;;;;;10358479;28;20466;-65
2023/08/15 10:49:11;;;;;;;9.07;6.20;;;23.40;91.60;;;;;;10362504;28;20448;-66
2023/08/15 10:54:14;;;;;;;8.05;6.15;;;23.40;91.60;;;;;;10362407;28;20408;-65
2023/08/15 10:59:15;;;;;;;6.97;6.00;;;23.40;91.60;;;;;;10367326;28;20401;-64
2023/08/15 11:04:17;;;;;;;8.73;6.07;;;23.40;91.70;;;;;;10358751;28;20993;-65
2023/08/15 11:09:18;;;;;;;7.78;5.93;;;23.40;91.70;;;;;;10362342;28;20443;-64
2023/08/15 11:14:19;;;;;;;7.82;6.25;;;23.40;91.70;;;;;;10360439;28;21132;-65
2023/08/15 11:19:20;;;;;;;7.60;6.10;;;23.50;91.80;;;;;;10362103;28;20486;-67
2023/08/15 11:24:21;;;;;;;7.78;6.30;;;23.50;91.80;;;;;;10363165;28;20424;-66
2023/08/15 11:29:21;;;;;;;7.85;6.03;;;23.50;91.80;;;;;;10351566;28;20412;-66
2023/08/15 11:34:23;;;;;;;7.73;6.03;;;23.60;91.80;;;;;;10362254;28;20455;-63
2023/08/15 11:39:24;;;;;;;7.78;5.72;;;23.60;91.90;;;;;;10360553;28;20884;-65
2023/08/15 11:44:25;;;;;;;7.03;6.22;;;23.60;91.80;;;;;;10361603;28;20801;-66
2023/08/15 11:49:25;;;;;;;7.17;5.97;;;23.60;91.80;;;;;;10344336;28;20417;-66
2023/08/15 11:54:26;;;;;;;7.20;6.00;;;23.60;92.00;;;;;;10359247;28;20450;-65
2023/08/15 11:59:27;;;;;;;7.00;6.27;;;23.60;92.00;;;;;;10363778;28;20401;-66
2023/08/15 12:04:33;;;;;;;6.80;6.10;;;23.60;92.00;;;;;;10360196;28;20985;-64
2023/08/15 12:09:34;;;;;;;7.28;6.25;;;23.60;92.00;;;;;;10358911;28;20920;-66
2023/08/15 12:14:34;;;;;;;6.60;5.90;;;23.60;92.10;;;;;;10360310;28;20511;-66
2023/08/15 12:19:35;;;;;;;8.00;6.07;;;23.50;92.20;;;;;;10361208;28;20880;-66
2023/08/15 12:24:36;;;;;;;9.40;6.43;;;23.50;92.50;;;;;;10359539;28;20409;-66
2023/08/15 12:29:36;;;;;;;6.97;6.00;;;23.60;92.20;;;;;;10359142;28;20400;-67
2023/08/15 12:34:37;;;;;;;7.10;6.40;;;23.60;92.20;;;;;;10358903;28;20412;-64
2023/08/15 12:39:37;;;;;;;8.30;6.20;;;23.60;92.30;;;;;;10350065;28;20408;-66
2023/08/15 12:44:38;;;;;;;7.60;6.50;;;23.70;92.30;;;;;;10351600;28;20511;-66
2023/08/15 12:49:39;;;;;;;7.00;6.30;;;23.70;92.20;;;;;;10365749;28;20773;-65
2023/08/15 12:54:39;;;;;;;7.33;5.93;;;23.70;92.20;;;;;;10363470;28;21059;-66
2023/08/15 12:59:40;;;;;;;6.93;5.90;;;23.70;92.30;;;;;;10350968;28;20454;-66
2023/08/15 13:04:41;;;;;;;7.80;5.90;;;23.70;92.30;;;;;;10361734;28;20421;-66
2023/08/15 13:09:41;;;;;;;8.33;6.13;;;23.80;92.30;;;;;;10362916;28;20407;-66
2023/08/15 13:14:44;;;;;;;8.02;6.13;;;23.80;92.30;;;;;;10359166;28;20485;-66
2023/08/15 13:19:45;;;;;;;7.30;6.00;;;23.80;92.20;;;;;;10354555;28;20853;-66
2023/08/15 13:24:46;;;;;;;8.07;5.97;;;23.90;92.30;;;;;;10367878;28;20423;-69
2023/08/15 13:29:46;;;;;;;6.53;5.70;;;23.90;92.40;;;;;;10373574;28;20500;-67
2023/08/15 13:34:47;;;;;;;7.20;5.88;;;23.90;92.30;;;;;;10371009;28;20831;-67
2023/08/15 13:39:47;;;;;;;6.23;5.63;;;24.00;92.20;;;;;;10368713;28;20401;-67
2023/08/15 13:44:48;;;;;;;7.97;6.07;;;24.00;92.20;;;;;;10372593;28;21042;-66
2023/08/15 13:49:49;;;;;;;6.23;5.50;;;24.10;92.10;;;;;;10368305;28;20420;-66
2023/08/15 13:54:49;;;;;;;6.07;5.47;;;24.10;92.00;;;;;;10362404;28;21071;-65
2023/08/15 13:59:50;;;;;;;7.15;5.63;;;24.20;92.00;;;;;;10363256;28;20715;-66
2023/08/15 14:04:51;;;;;;;5.93;5.30;;;24.20;92.00;;;;;;10366494;28;20776;-67
2023/08/15 14:09:51;;;;;;;5.90;5.30;;;24.20;92.00;;;;;;10367258;28;20489;-66
2023/08/15 14:14:53;;;;;;;6.27;5.50;;;24.30;92.00;;;;;;10361303;28;20409;-66
2023/08/15 14:19:53;;;;;;;6.75;6.05;;;24.30;91.90;;;;;;10361244;28;20808;-67
2023/08/15 14:24:54;;;;;;;6.78;5.35;;;24.40;91.90;;;;;;10367456;28;20416;-67
2023/08/15 14:29:54;;;;;;;6.53;5.60;;;24.40;91.80;;;;;;10370146;28;20884;-67
2023/08/15 14:34:56;;;;;;;6.20;5.60;;;24.50;91.80;;;;;;10371155;28;20431;-67
2023/08/15 14:39:57;;;;;;;6.83;5.97;;;24.50;91.70;;;;;;10368691;28;20431;-66
2023/08/15 14:44:58;;;;;;;6.83;5.67;;;24.50;91.70;;;;;;10351359;28;20413;-66
2023/08/15 14:49:59;;;;;;;6.40;5.60;;;24.50;91.70;;;;;;10364906;28;21004;-65
2023/08/15 14:55:00;;;;;;;6.72;6.03;;;24.50;91.90;;;;;;10362941;28;20743;-67
2023/08/15 15:00:01;;;;;;;6.90;5.90;;;24.50;91.80;;;;;;10368638;28;20407;-66
2023/08/15 15:05:02;;;;;;;6.43;5.82;;;24.60;91.70;;;;;;10365074;28;20811;-67
2023/08/15 15:10:03;;;;;;;6.53;5.85;;;24.60;91.70;;;;;;10361471;28;20417;-68
2023/08/15 15:15:04;;;;;;;6.28;5.65;;;24.70;91.60;;;;;;10349706;28;20440;-67
2023/08/15 15:20:06;;;;;;;6.57;5.93;;;24.80;91.50;;;;;;10364064;28;20444;-65
2023/08/15 15:25:08;;;;;;;6.10;5.50;;;24.90;91.60;;;;;;10361331;28;20970;-68
2023/08/15 15:30:09;;;;;;;6.63;5.70;;;24.90;91.30;;;;;;10356686;28;20399;-65
2023/08/15 15:35:10;;;;;;;6.60;6.00;;;24.90;91.20;;;;;;10357588;28;20412;-66
2023/08/15 15:40:11;;;;;;;7.68;6.30;;;24.90;91.30;;;;;;10359716;28;20795;-67
2023/08/15 15:45:12;;;;;;;7.00;6.30;;;24.90;91.20;;;;;;10359739;28;20420;-65
2023/08/15 15:50:12;;;;;;;7.40;6.37;;;24.90;91.20;;;;;;10360541;28;20481;-68
2023/08/15 15:55:14;;;;;;;6.40;5.57;;;25.00;91.10;;;;;;10356609;28;20899;-67
2023/08/15 16:00:16;;;;;;;6.60;5.90;;;25.10;90.70;;;;;;10362108;28;20428;-69
2023/08/15 16:05:16;;;;;;;6.83;6.17;;;25.20;90.70;;;;;;10363304;28;20413;-67
2023/08/15 16:10:17;;;;;;;7.87;7.07;;;25.20;90.60;;;;;;10344392;28;20404;-68
2023/08/15 16:15:18;;;;;;;7.70;6.90;;;25.20;90.60;;;;;;10352305;28;20754;-68
2023/08/15 16:20:19;;;;;;;7.33;6.63;;;25.20;90.60;;;;;;10350632;28;20808;-68
2023/08/15 16:25:19;;;;;;;7.70;6.90;;;25.20;90.60;;;;;;10356209;28;20424;-69
2023/08/15 16:30:20;;;;;;;7.50;6.68;;;25.20;90.70;;;;;;10369928;28;20409;-68
2023/08/15 16:35:21;;;;;;;7.13;6.40;;;25.10;90.70;;;;;;10357016;28;20780;-68
2023/08/15 16:40:21;;;;;;;9.00;7.57;;;25.10;90.80;;;;;;10364893;28;20404;-68
2023/08/15 16:45:22;;;;;;;7.10;6.40;;;25.10;90.80;;;;;;10353539;28;20985;-69
2023/08/15 16:50:23;;;;;;;7.03;6.33;;;25.10;90.80;;;;;;10365724;28;20948;-67
2023/08/15 16:55:23;;;;;;;7.10;6.40;;;25.00;90.80;;;;;;10365491;28;20500;-68
2023/08/15 17:00:26;;;;;;;7.60;6.50;;;25.00;90.80;;;;;;10361572;28;20415;-68
2023/08/15 17:05:26;;;;;;;7.20;6.50;;;25.00;90.80;;;;;;10365709;28;20416;-67
2023/08/15 17:10:27;;;;;;;7.47;6.50;;;24.90;91.00;;;;;;10334047;28;20407;-69
2023/08/15 17:15:28;;;;;;;6.80;6.10;;;24.90;91.10;;;;;;10366554;28;20691;-67
2023/08/15 17:20:29;;;;;;;7.67;6.83;;;24.80;91.10;;;;;;10364413;28;20429;-67
2023/08/15 17:25:29;;;;;;;7.95;6.32;;;24.80;91.00;;;;;;10361632;28;20425;-68
2023/08/15 17:30:30;;;;;;;7.15;6.10;;;24.80;91.00;;;;;;10365106;28;20405;-68
2023/08/15 17:35:30;;;;;;;6.73;6.03;;;24.70;90.80;;;;;;10364363;28;20787;-69
2023/08/15 17:40:34;;;;;;;6.55;5.95;;;24.70;90.80;;;;;;10359367;28;20808;-67
2023/08/15 17:45:38;;;;;;;7.80;6.40;;;24.70;90.70;;;;;;10354911;28;20511;-68
2023/08/15 17:50:39;;;;;;;7.90;7.10;;;24.70;91.10;;;;;;10358745;28;20434;-67
2023/08/15 17:55:40;;;;;;;6.83;6.10;;;24.70;91.00;;;;;;10358998;28;20413;-68
2023/08/15 18:00:41;;;;;;;7.10;6.40;;;24.60;91.20;;;;;;10357387;28;20562;-68
2023/08/15 18:05:42;;;;;;;7.03;6.33;;;24.60;91.20;;;;;;10357535;28;20443;-65
2023/08/15 18:10:47;;;;;;;6.97;6.10;;;24.60;91.20;;;;;;10359412;28;20533;-67
2023/08/15 18:15:47;;;;;;;7.20;6.32;;;24.50;91.10;;;;;;10354781;28;20943;-67
2023/08/15 18:20:49;;;;;;;4.83;4.03;;;24.50;91.30;;;;;;10350072;28;20424;-66
2023/08/15 18:25:49;;;;;;;2.05;1.63;;;24.40;90.30;;;;;;10334499;28;20777;-67
2023/08/15 18:30:50;;;;;;;5.50;1.60;;;24.20;85.50;;;;;;10346446;28;20412;-67
2023/08/15 18:35:51;;;;;;;2.63;1.40;;;23.90;85.40;;;;;;10355343;28;20427;-68
2023/08/15 18:40:52;;;;;;;2.22;1.40;;;23.60;85.70;;;;;;10358739;28;20432;-66
2023/08/15 18:45:53;;;;;;;4.60;1.50;;;23.30;86.20;;;;;;10358308;28;20495;-67
2023/08/15 18:50:53;;;;;;;3.40;1.40;;;23.10;86.50;;;;;;10360332;28;20425;-66
2023/08/15 18:55:54;;;;;;;4.37;1.23;;;23.00;86.40;;;;;;10352748;28;20452;-67
2023/08/15 19:00:54;;;;;;;5.20;1.40;;;22.80;86.20;;;;;;10354987;28;20897;-67
2023/08/15 19:05:56;;;;;;;3.60;1.30;;;22.70;86.90;;;;;;10342043;28;20769;-67
2023/08/15 19:10:57;;;;;;;3.07;1.20;;;22.60;87.30;;;;;;10355411;28;20409;-66
2023/08/15 19:15:58;;;;;;;4.22;1.17;;;22.60;88.00;;;;;;10346173;28;20904;-67
2023/08/15 19:20:58;;;;;;;3.63;1.50;;;22.50;88.50;;;;;;10356654;28;20417;-67
2023/08/15 19:25:59;;;;;;;2.80;1.30;;;22.40;88.80;;;;;;10353967;28;20412;-66
2023/08/15 19:31:00;;;;;;;2.40;1.20;;;22.30;89.40;;;;;;10353627;28;20408;-67
2023/08/15 19:36:00;;;;;;;2.57;1.20;;;22.20;89.30;;;;;;10338185;28;20768;-67
2023/08/15 19:41:01;;;;;;;2.83;1.40;;;22.10;89.80;;;;;;10351772;28;21149;-67
2023/08/15 19:46:01;;;;;;;2.53;1.70;;;22.00;90.30;;;;;;10356110;28;20519;-68
2023/08/15 19:51:02;;;;;;;5.03;1.80;;;21.90;90.50;;;;;;10343250;28;20479;-67
2023/08/15 19:56:03;;;;;;;4.63;2.00;;;21.80;90.50;;;;;;10373250;28;20412;-67
2023/08/15 20:01:04;;;;;;;2.57;1.60;;;21.70;90.80;;;;;;10364624;28;20491;-67
2023/08/15 20:06:05;;;;;;;3.10;1.57;;;21.60;91.00;;;;;;10360563;28;20900;-62
2023/08/15 20:11:05;;;;;;;3.07;1.50;;;21.50;91.40;;;;;;10365268;28;20423;-65
2023/08/15 20:16:06;;;;;;;3.23;1.47;;;21.60;91.10;;;;;;10360277;28;20402;-66
2023/08/15 20:21:07;;;;;;;2.40;1.60;;;21.70;91.00;;;;;;10367161;28;20404;-65
2023/08/15 20:26:08;;;;;;;4.70;1.90;;;21.90;90.90;;;;;;10367088;28;20442;-65
2023/08/15 20:31:09;;;;;;;3.07;2.00;;;21.90;90.80;;;;;;10362806;28;20431;-66
2023/08/15 20:36:13;;;;;;;3.22;2.10;;;22.00;90.70;;;;;;10360964;28;20426;-65
2023/08/15 20:41:13;;;;;;;2.13;1.80;;;22.10;90.60;;;;;;10359022;28;20880;-66
2023/08/15 20:46:14;;;;;;;3.10;2.07;;;22.10;90.50;;;;;;10362941;28;20401;-66
2023/08/15 20:51:15;;;;;;;2.80;1.80;;;22.20;90.50;;;;;;10333415;28;20757;-65
2023/08/15 20:56:16;;;;;;;3.60;1.90;;;22.20;90.40;;;;;;10362982;28;20477;-65
2023/08/15 21:01:23;;;;;;;3.55;2.10;;;22.20;90.40;;;;;;10352136;28;20400;-66
2023/08/15 21:06:25;;;;;;;3.63;2.17;;;22.20;90.40;;;;;;10357745;28;20409;-65
2023/08/15 21:11:25;;;;;;;2.80;1.88;;;22.20;90.40;;;;;;10357297;28;20401;-66
2023/08/15 21:16:26;;;;;;;3.13;2.00;;;22.20;90.40;;;;;;10351101;28;20417;-66
2023/08/15 21:21:26;;;;;;;3.17;2.10;;;22.20;90.40;;;;;;10351667;28;20839;-65
2023/08/15 21:26:27;;;;;;;2.93;2.20;;;22.20;90.30;;;;;;10357000;28;20912;-66
2023/08/15 21:31:29;;;;;;;3.30;2.07;;;22.20;90.30;;;;;;10356194;28;20457;-66
2023/08/15 21:36:29;;;;;;;2.55;1.90;;;22.20;90.30;;;;;;10354958;28;20408;-66
2023/08/15 21:41:30;;;;;;;3.03;2.00;;;22.20;90.30;;;;;;10350419;28;20424;-65
2023/08/15 21:46:30;;;;;;;4.57;2.15;;;22.20;90.30;;;;;;10356729;28;20405;-65
2023/08/15 21:51:31;;;;;;;3.35;2.25;;;22.20;90.30;;;;;;10339125;28;20898;-66
2023/08/15 21:56:32;;;;;;;4.23;2.43;;;22.10;90.20;;;;;;10353831;28;20404;-65
2023/08/15 22:01:33;;;;;;;3.50;2.20;;;22.10;90.30;;;;;;10357090;28;20402;-65
2023/08/15 22:06:33;;;;;;;3.40;2.30;;;22.10;90.30;;;;;;10356808;28;20996;-65
2023/08/15 22:11:34;;;;;;;3.25;2.60;;;22.10;90.30;;;;;;10355454;28;20454;-66
2023/08/15 22:16:35;;;;;;;3.72;2.40;;;22.00;90.20;;;;;;10353482;28;20772;-65
2023/08/15 22:21:35;;;;;;;6.53;2.70;;;22.10;90.30;;;;;;10354386;28;20817;-66
2023/08/15 22:26:36;;;;;;;3.53;2.60;;;22.00;90.20;;;;;;10359065;28;20412;-65
2023/08/15 22:31:37;;;;;;;4.00;2.50;;;22.00;90.20;;;;;;10359889;28;20835;-65
2023/08/15 22:36:37;;;;;;;2.97;2.53;;;22.00;90.20;;;;;;10357423;28;20461;-66
2023/08/15 22:41:39;;;;;;;3.10;2.43;;;22.00;90.10;;;;;;10357107;28;20454;-66
2023/08/15 22:46:40;;;;;;;3.17;2.50;;;21.90;90.10;;;;;;10355717;28;20412;-65
2023/08/15 22:51:40;;;;;;;3.53;2.70;;;21.90;90.10;;;;;;10352623;28;20762;-65
2023/08/15 22:56:43;;;;;;;3.10;2.55;;;21.90;90.10;;;;;;10353351;28;21400;-64
2023/08/15 23:01:43;;;;;;;4.40;2.70;;;21.90;90.10;;;;;;10352824;28;20502;-66
2023/08/15 23:06:44;;;;;;;3.33;2.60;;;21.90;90.10;;;;;;10357364;28;20403;-65
2023/08/15 23:11:46;;;;;;;3.35;2.60;;;21.80;90.00;;;;;;10341203;28;21055;-66
2023/08/15 23:16:46;;;;;;;3.20;2.40;;;21.80;90.00;;;;;;10354057;28;20488;-66
2023/08/15 23:21:47;;;;;;;3.30;2.60;;;21.80;90.00;;;;;;10355204;28;20904;-66
2023/08/15 23:26:48;;;;;;;2.95;2.42;;;21.80;90.00;;;;;;10356511;28;20409;-64
2023/08/15 23:31:48;;;;;;;3.78;2.50;;;21.70;90.00;;;;;;10354998;28;20787;-64
2023/08/15 23:36:51;;;;;;;3.40;2.60;;;21.70;90.00;;;;;;10355228;28;20405;-66
2023/08/15 23:41:51;;;;;;;3.23;2.60;;;21.70;90.30;;;;;;10356707;28;20485;-64
2023/08/15 23:46:52;;;;;;;4.43;2.50;;;21.70;90.00;;;;;;10362315;28;20403;-64
2023/08/15 23:51:53;;;;;;;3.30;2.37;;;21.60;89.70;;;;;;10364806;28;20437;-65
2023/08/15 23:56:53;;;;;;;2.80;2.37;;;21.60;89.60;;;;;;10357701;28;20408;-64
